RKJK/KUV METAR and TAF weather

Enter ICAO airport designator
Station Type Date Time Source
RKJK METAR 2019/06/27 07:56 UTC NOAA

RKJK 270756Z 28008KT 6SM HZ FEW048 SCT200 25/24 A2953 RMK AO2A SLP004 T02460244 $


Station Type Date Time Source
RKJK Decoded METAR 2019/06/27 07:56 UTC NOAA

Kunsan Ab, Korea, South (RKJK) 35-55N 126-37E 10M
Jun 27, 2019 - 03:56 AM EDT / 2019.06.27 0756 UTC
Wind: from the W (280 degrees) at 9 MPH (8 KT):0
Visibility: 6 mile(s):0
Sky conditions: partly cloudy
Weather: haze
Temperature: 76.3 F (24.6 C)
Dew Point: 75.9 F (24.4 C)
Relative Humidity: 98%
Pressure (altimeter): 29.53 in. Hg (1000 hPa)
ob: RKJK 270756Z 28008KT 6SM HZ FEW048 SCT200 25/24 A2953 RMK AO2A SLP004 T02460244
cycle: 8

Station Type Date Time Source
RKJK TAF 2019/06/27 23:00 UTC NOAA

TAF TAF
AMD RKJK 262358Z 2623/2805 VRB06KT 4800 BR BKN012 QNH2950INS
BECMG 2704/2705 29009KT 9999 NSW FEW015 SCT020 QNH2952INS
BECMG 2713/2714 20006KT 8000 BR FEW010 BKN030 QNH2958INS TX25/2706Z TN19/2721Z

Example: see airport list